Mohawk, Tennessee
Current Conditions -  °F | °C
As of 7:15 PM on Friday 21 Nov 2014 (Local Time) from KMOR Reporting Station
Clear Clear  
Wind Chill: 37°   Ceiling: Unl
Heat Index: 37°   Visibility: 10mi
Dew Point: 16°   Wind: 3mph
Humidity: 41%   Direction: 60°ENE
Pressure: 30.42"   Gusts: NA
Location:  36.2°N, 83.05°W
Report Text: KMOR 220015Z AUTO 06003KT 10SM CLR 03/M09 A3042 RMK
Loading
Personal Weather Stations






























Interactive Weather Map New forecast layout! Learn more

10-Day Weather Forecast

Advertisements
Track Severe Weather on mobile